CST,Max TemperatureF,Mean TemperatureF,Min TemperatureF,Max Dew PointF,MeanDew PointF,Min DewpointF,Max Humidity, Mean Humidity, Min Humidity, Max Sea Level PressureIn, Mean Sea Level PressureIn, Min Sea Level PressureIn, Max VisibilityMiles, Mean VisibilityMiles, Min VisibilityMiles, Max Wind SpeedMPH, Mean Wind SpeedMPH, Max Gust SpeedMPH,PrecipitationIn, CloudCover, Events, WindDirDegrees
2014-1-1,15,10,4,9,4,0,91,79,67,30.49,30.25,30.05,10,7,1,17,9,21,0.00,8,Snow,9
2014-1-2,17,15,13,12,10,9,96,85,73,30.47,30.38,30.20,10,9,4,18,7,21,T,8,Snow,136
2014-1-3,42,27,11,32,19,7,96,78,59,30.27,29.85,29.55,10,8,5,21,12,26,0.00,4,,193
2014-1-4,41,25,8,31,13,-1,78,64,49,30.35,30.03,29.68,10,9,2,32,17,40,0.00,5,Snow,349
2014-1-5,10,0,-10,-1,-12,-23,76,59,42,30.68,30.53,30.35,10,9,2,36,17,46,T,4,Snow,339
2014-1-6,11,1,-10,-5,-15,-22,69,52,34,30.62,30.50,30.25,10,10,10,28,12,34,0.00,1,,294
2014-1-7,45,23,0,20,9,-5,79,57,34,30.25,30.14,30.05,10,9,2,20,6,23,T,4,Rain-Snow,19
2014-1-8,20,16,12,16,13,11,88,81,73,30.40,30.29,30.17,10,7,2,14,6,17,T,7,Snow,130
2014-1-9,32,24,16,26,19,13,92,82,72,30.31,30.05,29.82,8,5,2,22,13,27,0.00,7,,187
2014-1-10,44,32,19,28,26,17,92,73,53,29.80,29.67,29.55,10,8,4,17,8,21,0.00,5,,254
2014-1-11,51,36,20,26,23,17,91,60,28,29.89,29.77,29.59,10,10,10,28,12,34,0.00,1,,276
2014-1-12,49,41,32,30,25,21,66,55,43,29.77,29.59,29.49,10,10,10,18,8,24,0.00,3,,278
2014-1-13,52,36,20,33,24,18,92,61,29,29.90,29.80,29.73,10,10,10,32,12,38,T,1,,279
2014-1-14,47,37,26,30,16,7,75,50,25,30.31,30.15,29.76,10,10,5,40,22,56,T,2,Snow,328
2014-1-15,53,32,11,34,20,7,92,62,32,30.30,30.04,29.84,10,10,10,25,9,32,T,6,Rain,257
2014-1-16,45,33,20,24,15,7,55,45,34,30.22,30.00,29.84,10,9,2,48,32,63,0.00,3,Snow,320
2014-1-17,43,28,13,20,14,7,88,59,29,30.23,30.09,29.81,10,10,10,22,9,29,0.00,1,,276
2014-1-18,44,32,19,26,22,15,84,62,40,30.14,29.97,29.77,10,10,10,41,20,55,0.00,4,,310
2014-1-19,66,41,15,25,15,11,88,51,13,30.01,29.89,29.78,10,10,10,35,9,42,0.00,0,,311
2014-1-20,45,25,4,21,12,-4,76,55,33,30.56,30.21,29.90,10,10,8,48,20,58,T,1,,327
2014-1-21,42,20,-2,20,5,-7,81,57,33,30.57,30.30,30.02,10,10,10,22,9,27,0.00,0,,265
2014-1-22,33,16,-2,21,6,-10,88,69,50,30.72,30.35,30.14,10,10,8,32,15,42,T,4,Snow,338
2014-1-23,22,8,-7,2,-10,-15,75,48,21,30.93,30.75,30.43,10,10,10,22,10,30,0.00,0,,276
2014-1-24,54,34,13,33,20,4,67,50,33,30.38,30.02,29.83,10,10,10,36,17,45,0.00,4,,285
2014-1-25,49,41,33,35,30,24,82,64,45,30.09,29.92,29.65,10,10,10,29,14,39,0.00,6,,309
2014-1-26,54,30,5,29,16,-9,70,50,30,30.36,29.89,29.63,10,10,9,43,22,54,T,2,,321
2014-1-27,15,7,-2,-6,-10,-13,66,50,33,30.57,30.50,30.39,10,10,10,22,7,27,0.00,2,,321
2014-1-28,22,9,-5,-3,-7,-11,68,51,33,30.52,30.40,30.25,10,10,10,21,8,28,T,1,,273
2014-1-29,52,23,-7,10,1,-11,82,49,16,30.24,29.88,29.44,10,10,10,24,10,32,0.00,1,,198
2014-1-30,47,34,20,36,14,10,71,48,25,30.11,29.79,29.34,10,10,4,36,16,45,T,5,Rain-Snow,346
2014-1-31,24,20,15,15,12,8,88,75,62,30.16,30.05,29.96,10,7,1,13,7,17,T,7,Snow,133